sensor_id;sensor_type;location;lat;lon;timestamp;temperature;humidity
35970;DHT22;22448;51.298;6.430;2023-11-19T00:01:59;11.20;99.90
35970;DHT22;22448;51.298;6.430;2023-11-19T00:04:27;11.20;99.90
35970;DHT22;22448;51.298;6.430;2023-11-19T00:06:54;11.20;99.90
35970;DHT22;22448;51.298;6.430;2023-11-19T00:09:22;11.30;99.90
35970;DHT22;22448;51.298;6.430;2023-11-19T00:11:49;11.30;99.90
35970;DHT22;22448;51.298;6.430;2023-11-19T00:14:20;11.30;99.90
35970;DHT22;22448;51.298;6.430;2023-11-19T00:16:46;11.30;99.90
35970;DHT22;22448;51.298;6.430;2023-11-19T00:19:14;11.40;99.90
35970;DHT22;22448;51.298;6.430;2023-11-19T00:21:41;11.40;99.90
35970;DHT22;22448;51.298;6.430;2023-11-19T00:24:08;11.40;99.90
35970;DHT22;22448;51.298;6.430;2023-11-19T00:26:36;11.40;99.90
35970;DHT22;22448;51.298;6.430;2023-11-19T00:29:03;11.50;99.90
35970;DHT22;22448;51.298;6.430;2023-11-19T00:31:30;11.50;99.90
35970;DHT22;22448;51.298;6.430;2023-11-19T00:33:58;11.50;99.90
35970;DHT22;22448;51.298;6.430;2023-11-19T00:36:26;11.50;99.90
35970;DHT22;22448;51.298;6.430;2023-11-19T00:38:53;11.50;99.90
35970;DHT22;22448;51.298;6.430;2023-11-19T00:41:21;11.50;99.90
35970;DHT22;22448;51.298;6.430;2023-11-19T00:43:49;11.50;99.90
35970;DHT22;22448;51.298;6.430;2023-11-19T00:46:16;11.50;99.90
35970;DHT22;22448;51.298;6.430;2023-11-19T00:48:44;11.50;99.90
35970;DHT22;22448;51.298;6.430;2023-11-19T00:51:12;11.60;99.90
35970;DHT22;22448;51.298;6.430;2023-11-19T00:53:39;11.60;99.90
35970;DHT22;22448;51.298;6.430;2023-11-19T00:56:06;11.60;99.90
35970;DHT22;22448;51.298;6.430;2023-11-19T00:58:34;11.60;99.90
35970;DHT22;22448;51.298;6.430;2023-11-19T01:01:02;11.60;99.90
35970;DHT22;22448;51.298;6.430;2023-11-19T01:03:29;11.60;99.90
35970;DHT22;22448;51.298;6.430;2023-11-19T01:05:56;11.60;99.90
35970;DHT22;22448;51.298;6.430;2023-11-19T01:08:25;11.70;99.90
35970;DHT22;22448;51.298;6.430;2023-11-19T01:10:52;11.70;99.90
35970;DHT22;22448;51.298;6.430;2023-11-19T01:13:20;11.70;99.90
35970;DHT22;22448;51.298;6.430;2023-11-19T01:15:47;11.70;99.90
35970;DHT22;22448;51.298;6.430;2023-11-19T01:18:15;11.70;99.90
35970;DHT22;22448;51.298;6.430;2023-11-19T01:20:46;11.70;99.90
35970;DHT22;22448;51.298;6.430;2023-11-19T01:23:13;11.70;99.90
35970;DHT22;22448;51.298;6.430;2023-11-19T01:25:40;11.70;99.90
35970;DHT22;22448;51.298;6.430;2023-11-19T01:28:07;11.60;99.90
35970;DHT22;22448;51.298;6.430;2023-11-19T01:30:35;11.70;99.90
35970;DHT22;22448;51.298;6.430;2023-11-19T01:33:02;11.70;99.90
35970;DHT22;22448;51.298;6.430;2023-11-19T01:35:29;11.60;99.90
35970;DHT22;22448;51.298;6.430;2023-11-19T01:37:56;11.70;99.90
35970;DHT22;22448;51.298;6.430;2023-11-19T01:40:24;11.70;99.90
35970;DHT22;22448;51.298;6.430;2023-11-19T01:42:51;11.70;99.90
35970;DHT22;22448;51.298;6.430;2023-11-19T01:45:26;11.70;99.90
35970;DHT22;22448;51.298;6.430;2023-11-19T01:47:55;11.70;99.90
35970;DHT22;22448;51.298;6.430;2023-11-19T01:50:23;11.70;99.90
35970;DHT22;22448;51.298;6.430;2023-11-19T01:52:54;11.70;99.90
35970;DHT22;22448;51.298;6.430;2023-11-19T01:55:25;11.70;99.90
35970;DHT22;22448;51.298;6.430;2023-11-19T01:57:59;11.70;99.90
35970;DHT22;22448;51.298;6.430;2023-11-19T02:00:28;11.70;99.90
35970;DHT22;22448;51.298;6.430;2023-11-19T02:02:56;11.80;99.90
35970;DHT22;22448;51.298;6.430;2023-11-19T02:05:23;11.80;99.90
35970;DHT22;22448;51.298;6.430;2023-11-19T02:07:52;11.80;99.90
35970;DHT22;22448;51.298;6.430;2023-11-19T02:10:19;11.80;99.90
35970;DHT22;22448;51.298;6.430;2023-11-19T02:12:47;11.70;99.90
35970;DHT22;22448;51.298;6.430;2023-11-19T02:15:15;11.70;99.90
35970;DHT22;22448;51.298;6.430;2023-11-19T02:17:46;11.70;99.90
35970;DHT22;22448;51.298;6.430;2023-11-19T02:20:13;11.70;99.90
35970;DHT22;22448;51.298;6.430;2023-11-19T02:22:42;11.70;99.90
35970;DHT22;22448;51.298;6.430;2023-11-19T02:25:39;11.70;99.90
35970;DHT22;22448;51.298;6.430;2023-11-19T02:28:08;11.70;99.90
35970;DHT22;22448;51.298;6.430;2023-11-19T02:30:38;11.60;99.90
35970;DHT22;22448;51.298;6.430;2023-11-19T02:33:05;11.60;99.90
35970;DHT22;22448;51.298;6.430;2023-11-19T02:35:36;11.50;99.90
35970;DHT22;22448;51.298;6.430;2023-11-19T02:38:03;11.50;99.90
35970;DHT22;22448;51.298;6.430;2023-11-19T02:40:31;11.50;99.90
35970;DHT22;22448;51.298;6.430;2023-11-19T02:42:58;11.50;99.90
35970;DHT22;22448;51.298;6.430;2023-11-19T02:45:26;11.50;99.90
35970;DHT22;22448;51.298;6.430;2023-11-19T02:47:54;11.60;99.90
35970;DHT22;22448;51.298;6.430;2023-11-19T02:50:25;11.60;99.90
35970;DHT22;22448;51.298;6.430;2023-11-19T02:52:54;11.70;99.90
35970;DHT22;22448;51.298;6.430;2023-11-19T02:55:24;11.70;99.90
35970;DHT22;22448;51.298;6.430;2023-11-19T02:57:52;11.60;99.90
35970;DHT22;22448;51.298;6.430;2023-11-19T03:00:22;11.60;99.90
35970;DHT22;22448;51.298;6.430;2023-11-19T03:03:01;11.50;99.90
35970;DHT22;22448;51.298;6.430;2023-11-19T03:05:46;11.40;99.90
35970;DHT22;22448;51.298;6.430;2023-11-19T03:08:15;11.40;99.90
35970;DHT22;22448;51.298;6.430;2023-11-19T03:10:46;11.50;99.90
35970;DHT22;22448;51.298;6.430;2023-11-19T03:13:13;11.50;99.90
35970;DHT22;22448;51.298;6.430;2023-11-19T03:15:41;11.60;99.90
35970;DHT22;22448;51.298;6.430;2023-11-19T03:18:09;11.60;99.90
35970;DHT22;22448;51.298;6.430;2023-11-19T03:20:36;11.70;99.90
35970;DHT22;22448;51.298;6.430;2023-11-19T03:23:03;11.70;99.90
35970;DHT22;22448;51.298;6.430;2023-11-19T03:25:31;11.70;99.90
35970;DHT22;22448;51.298;6.430;2023-11-19T03:28:01;11.70;99.90
35970;DHT22;22448;51.298;6.430;2023-11-19T03:30:31;11.70;99.90
35970;DHT22;22448;51.298;6.430;2023-11-19T03:33:01;11.60;99.90
35970;DHT22;22448;51.298;6.430;2023-11-19T03:35:30;11.60;99.90
35970;DHT22;22448;51.298;6.430;2023-11-19T03:37:57;11.50;99.90
35970;DHT22;22448;51.298;6.430;2023-11-19T03:40:24;11.40;99.90
35970;DHT22;22448;51.298;6.430;2023-11-19T03:42:52;11.30;99.90
35970;DHT22;22448;51.298;6.430;2023-11-19T03:45:19;11.20;99.90
35970;DHT22;22448;51.298;6.430;2023-11-19T03:47:47;11.20;99.90
35970;DHT22;22448;51.298;6.430;2023-11-19T03:50:17;11.20;99.90
35970;DHT22;22448;51.298;6.430;2023-11-19T03:52:47;11.20;99.90
35970;DHT22;22448;51.298;6.430;2023-11-19T03:55:15;11.10;99.90
35970;DHT22;22448;51.298;6.430;2023-11-19T03:57:43;11.10;99.90
35970;DHT22;22448;51.298;6.430;2023-11-19T04:00:10;11.10;99.90
35970;DHT22;22448;51.298;6.430;2023-11-19T04:02:41;11.10;99.90
35970;DHT22;22448;51.298;6.430;2023-11-19T04:05:08;11.00;99.90
35970;DHT22;22448;51.298;6.430;2023-11-19T04:07:37;11.00;99.90
35970;DHT22;22448;51.298;6.430;2023-11-19T04:10:05;10.90;99.90
35970;DHT22;22448;51.298;6.430;2023-11-19T04:12:32;11.00;99.90
35970;DHT22;22448;51.298;6.430;2023-11-19T04:14:59;10.90;99.90
35970;DHT22;22448;51.298;6.430;2023-11-19T04:17:28;11.00;99.90
35970;DHT22;22448;51.298;6.430;2023-11-19T04:19:55;10.90;99.90
35970;DHT22;22448;51.298;6.430;2023-11-19T04:22:22;10.90;99.90
35970;DHT22;22448;51.298;6.430;2023-11-19T04:24:51;10.90;99.90
35970;DHT22;22448;51.298;6.430;2023-11-19T04:27:18;10.90;99.90
35970;DHT22;22448;51.298;6.430;2023-11-19T04:29:45;11.00;99.90
35970;DHT22;22448;51.298;6.430;2023-11-19T04:32:14;10.90;99.90
35970;DHT22;22448;51.298;6.430;2023-11-19T04:34:41;10.90;99.90
35970;DHT22;22448;51.298;6.430;2023-11-19T04:37:08;10.90;99.90
35970;DHT22;22448;51.298;6.430;2023-11-19T04:39:39;10.80;99.90
35970;DHT22;22448;51.298;6.430;2023-11-19T04:42:06;10.90;99.90
35970;DHT22;22448;51.298;6.430;2023-11-19T04:44:33;10.80;99.90
35970;DHT22;22448;51.298;6.430;2023-11-19T04:47:01;10.80;99.90
35970;DHT22;22448;51.298;6.430;2023-11-19T04:49:28;10.90;99.90
35970;DHT22;22448;51.298;6.430;2023-11-19T04:51:57;10.90;99.90
35970;DHT22;22448;51.298;6.430;2023-11-19T04:54:24;10.90;99.90
35970;DHT22;22448;51.298;6.430;2023-11-19T04:56:51;10.90;99.90
35970;DHT22;22448;51.298;6.430;2023-11-19T04:59:19;11.00;99.90
35970;DHT22;22448;51.298;6.430;2023-11-19T05:01:49;10.90;99.90
35970;DHT22;22448;51.298;6.430;2023-11-19T05:04:17;10.90;99.90
35970;DHT22;22448;51.298;6.430;2023-11-19T05:06:46;10.80;99.90
35970;DHT22;22448;51.298;6.430;2023-11-19T05:09:13;10.80;99.90
35970;DHT22;22448;51.298;6.430;2023-11-19T05:11:40;10.80;99.90
35970;DHT22;22448;51.298;6.430;2023-11-19T05:14:10;10.90;99.90
35970;DHT22;22448;51.298;6.430;2023-11-19T05:16:40;10.80;99.90
35970;DHT22;22448;51.298;6.430;2023-11-19T05:19:08;10.80;99.90
35970;DHT22;22448;51.298;6.430;2023-11-19T05:21:35;10.90;99.90
35970;DHT22;22448;51.298;6.430;2023-11-19T05:24:03;10.80;99.90
35970;DHT22;22448;51.298;6.430;2023-11-19T05:26:32;10.80;99.90
35970;DHT22;22448;51.298;6.430;2023-11-19T05:28:59;10.90;99.90
35970;DHT22;22448;51.298;6.430;2023-11-19T05:31:26;10.90;99.90
35970;DHT22;22448;51.298;6.430;2023-11-19T05:33:54;10.90;99.90
35970;DHT22;22448;51.298;6.430;2023-11-19T05:36:21;10.80;99.90
35970;DHT22;22448;51.298;6.430;2023-11-19T05:38:48;10.80;99.90
35970;DHT22;22448;51.298;6.430;2023-11-19T05:41:15;10.90;99.90
35970;DHT22;22448;51.298;6.430;2023-11-19T05:43:42;11.00;99.90
35970;DHT22;22448;51.298;6.430;2023-11-19T05:46:09;11.00;99.90
35970;DHT22;22448;51.298;6.430;2023-11-19T05:48:39;11.00;99.90
35970;DHT22;22448;51.298;6.430;2023-11-19T05:51:06;11.00;99.90
35970;DHT22;22448;51.298;6.430;2023-11-19T05:53:33;11.00;99.90
35970;DHT22;22448;51.298;6.430;2023-11-19T05:56:01;11.00;99.90
35970;DHT22;22448;51.298;6.430;2023-11-19T05:58:30;10.90;99.90
35970;DHT22;22448;51.298;6.430;2023-11-19T06:00:59;10.90;99.90
35970;DHT22;22448;51.298;6.430;2023-11-19T06:03:30;10.80;99.90
35970;DHT22;22448;51.298;6.430;2023-11-19T06:05:57;10.80;99.90
35970;DHT22;22448;51.298;6.430;2023-11-19T06:08:24;10.80;99.90
35970;DHT22;22448;51.298;6.430;2023-11-19T06:10:54;10.80;99.90
35970;DHT22;22448;51.298;6.430;2023-11-19T06:13:21;10.80;99.90
35970;DHT22;22448;51.298;6.430;2023-11-19T06:15:51;10.80;99.90
35970;DHT22;22448;51.298;6.430;2023-11-19T06:18:18;10.80;99.90
35970;DHT22;22448;51.298;6.430;2023-11-19T06:20:47;10.70;99.90
35970;DHT22;22448;51.298;6.430;2023-11-19T06:23:14;10.70;99.90
35970;DHT22;22448;51.298;6.430;2023-11-19T06:25:41;10.70;99.90
35970;DHT22;22448;51.298;6.430;2023-11-19T06:28:09;10.70;99.90
35970;DHT22;22448;51.298;6.430;2023-11-19T06:30:36;10.70;99.90
35970;DHT22;22448;51.298;6.430;2023-11-19T06:33:03;10.60;99.90
35970;DHT22;22448;51.298;6.430;2023-11-19T06:35:31;10.50;99.90
35970;DHT22;22448;51.298;6.430;2023-11-19T06:38:03;10.50;99.90
35970;DHT22;22448;51.298;6.430;2023-11-19T06:40:34;10.50;99.90
35970;DHT22;22448;51.298;6.430;2023-11-19T06:43:03;10.40;99.90
35970;DHT22;22448;51.298;6.430;2023-11-19T06:45:31;10.40;99.90
35970;DHT22;22448;51.298;6.430;2023-11-19T06:48:00;10.40;99.90
35970;DHT22;22448;51.298;6.430;2023-11-19T06:50:28;10.30;99.90
35970;DHT22;22448;51.298;6.430;2023-11-19T06:52:55;10.30;99.90
35970;DHT22;22448;51.298;6.430;2023-11-19T06:55:22;10.30;99.90
35970;DHT22;22448;51.298;6.430;2023-11-19T06:57:49;10.30;99.90
35970;DHT22;22448;51.298;6.430;2023-11-19T07:00:16;10.30;99.90
35970;DHT22;22448;51.298;6.430;2023-11-19T07:02:45;10.30;99.90
35970;DHT22;22448;51.298;6.430;2023-11-19T07:05:12;10.20;99.90
35970;DHT22;22448;51.298;6.430;2023-11-19T07:07:40;10.20;99.90
35970;DHT22;22448;51.298;6.430;2023-11-19T07:10:07;10.20;99.90
35970;DHT22;22448;51.298;6.430;2023-11-19T07:12:36;10.20;99.90
35970;DHT22;22448;51.298;6.430;2023-11-19T07:15:04;10.20;99.90
35970;DHT22;22448;51.298;6.430;2023-11-19T07:17:32;10.20;99.90
35970;DHT22;22448;51.298;6.430;2023-11-19T07:19:59;10.20;99.90
35970;DHT22;22448;51.298;6.430;2023-11-19T07:22:26;10.10;99.90
35970;DHT22;22448;51.298;6.430;2023-11-19T07:24:53;10.20;99.90
35970;DHT22;22448;51.298;6.430;2023-11-19T07:27:20;10.10;99.90
35970;DHT22;22448;51.298;6.430;2023-11-19T07:29:47;10.20;99.90
35970;DHT22;22448;51.298;6.430;2023-11-19T07:32:15;10.20;99.90
35970;DHT22;22448;51.298;6.430;2023-11-19T07:34:42;10.20;99.90
35970;DHT22;22448;51.298;6.430;2023-11-19T07:37:09;10.20;99.90
35970;DHT22;22448;51.298;6.430;2023-11-19T07:39:36;10.20;99.90
35970;DHT22;22448;51.298;6.430;2023-11-19T07:42:04;10.30;99.90
35970;DHT22;22448;51.298;6.430;2023-11-19T07:44:32;10.30;99.90
35970;DHT22;22448;51.298;6.430;2023-11-19T07:46:59;10.30;99.90
35970;DHT22;22448;51.298;6.430;2023-11-19T07:49:26;10.30;99.90
35970;DHT22;22448;51.298;6.430;2023-11-19T07:51:53;10.40;99.90
35970;DHT22;22448;51.298;6.430;2023-11-19T07:54:20;10.40;99.90
35970;DHT22;22448;51.298;6.430;2023-11-19T07:56:48;10.40;99.90
35970;DHT22;22448;51.298;6.430;2023-11-19T07:59:16;10.50;99.90
35970;DHT22;22448;51.298;6.430;2023-11-19T08:01:43;10.60;99.90
35970;DHT22;22448;51.298;6.430;2023-11-19T08:04:10;10.60;99.90
35970;DHT22;22448;51.298;6.430;2023-11-19T08:06:38;10.70;99.90
35970;DHT22;22448;51.298;6.430;2023-11-19T08:09:05;10.80;99.90
35970;DHT22;22448;51.298;6.430;2023-11-19T08:11:33;11.10;99.90
35970;DHT22;22448;51.298;6.430;2023-11-19T08:14:00;11.20;99.90
35970;DHT22;22448;51.298;6.430;2023-11-19T08:16:27;11.30;99.90
35970;DHT22;22448;51.298;6.430;2023-11-19T08:18:54;11.30;99.90
35970;DHT22;22448;51.298;6.430;2023-11-19T08:21:22;11.20;99.90
35970;DHT22;22448;51.298;6.430;2023-11-19T08:23:49;11.20;99.90
35970;DHT22;22448;51.298;6.430;2023-11-19T08:26:16;11.20;99.90
35970;DHT22;22448;51.298;6.430;2023-11-19T08:28:47;11.30;99.90
35970;DHT22;22448;51.298;6.430;2023-11-19T08:31:14;11.30;99.90
35970;DHT22;22448;51.298;6.430;2023-11-19T08:33:42;11.30;99.90
35970;DHT22;22448;51.298;6.430;2023-11-19T08:36:15;11.40;99.90
35970;DHT22;22448;51.298;6.430;2023-11-19T08:38:42;11.30;99.90
35970;DHT22;22448;51.298;6.430;2023-11-19T08:41:09;11.30;99.90
35970;DHT22;22448;51.298;6.430;2023-11-19T08:43:37;11.40;99.90
35970;DHT22;22448;51.298;6.430;2023-11-19T08:46:10;11.50;99.90
35970;DHT22;22448;51.298;6.430;2023-11-19T08:48:37;11.50;99.90
35970;DHT22;22448;51.298;6.430;2023-11-19T08:51:05;11.50;99.90
35970;DHT22;22448;51.298;6.430;2023-11-19T08:53:32;11.60;99.90
35970;DHT22;22448;51.298;6.430;2023-11-19T08:56:00;11.70;99.90
35970;DHT22;22448;51.298;6.430;2023-11-19T08:58:30;11.70;99.90
35970;DHT22;22448;51.298;6.430;2023-11-19T09:00:57;11.80;99.90
35970;DHT22;22448;51.298;6.430;2023-11-19T09:03:25;11.90;99.90
35970;DHT22;22448;51.298;6.430;2023-11-19T09:05:57;12.10;99.90
35970;DHT22;22448;51.298;6.430;2023-11-19T09:08:24;12.10;99.90
35970;DHT22;22448;51.298;6.430;2023-11-19T09:10:52;12.10;99.90
35970;DHT22;22448;51.298;6.430;2023-11-19T09:13:18;12.20;99.90
35970;DHT22;22448;51.298;6.430;2023-11-19T09:15:46;12.20;99.90
35970;DHT22;22448;51.298;6.430;2023-11-19T09:18:13;12.20;99.90
35970;DHT22;22448;51.298;6.430;2023-11-19T09:20:40;12.30;99.90
35970;DHT22;22448;51.298;6.430;2023-11-19T09:23:08;12.50;99.90
35970;DHT22;22448;51.298;6.430;2023-11-19T09:25:36;12.60;99.90
35970;DHT22;22448;51.298;6.430;2023-11-19T09:28:06;12.80;99.90
35970;DHT22;22448;51.298;6.430;2023-11-19T09:30:33;12.90;99.90
35970;DHT22;22448;51.298;6.430;2023-11-19T09:33:01;12.90;99.90
35970;DHT22;22448;51.298;6.430;2023-11-19T09:35:28;12.80;99.90
35970;DHT22;22448;51.298;6.430;2023-11-19T09:37:55;12.80;99.90
35970;DHT22;22448;51.298;6.430;2023-11-19T09:40:23;12.90;99.90
35970;DHT22;22448;51.298;6.430;2023-11-19T09:42:50;12.90;99.90
35970;DHT22;22448;51.298;6.430;2023-11-19T09:45:21;12.90;99.90
35970;DHT22;22448;51.298;6.430;2023-11-19T09:47:51;13.00;99.90
35970;DHT22;22448;51.298;6.430;2023-11-19T09:50:20;13.20;99.90
35970;DHT22;22448;51.298;6.430;2023-11-19T09:52:47;13.30;99.90
35970;DHT22;22448;51.298;6.430;2023-11-19T09:55:15;13.20;99.90
35970;DHT22;22448;51.298;6.430;2023-11-19T09:57:42;13.20;99.90
35970;DHT22;22448;51.298;6.430;2023-11-19T10:00:11;13.20;99.90
35970;DHT22;22448;51.298;6.430;2023-11-19T10:02:43;13.20;99.90
35970;DHT22;22448;51.298;6.430;2023-11-19T10:05:14;13.10;99.90
35970;DHT22;22448;51.298;6.430;2023-11-19T10:07:42;13.00;99.90
35970;DHT22;22448;51.298;6.430;2023-11-19T10:10:09;12.90;99.90
35970;DHT22;22448;51.298;6.430;2023-11-19T10:12:40;12.80;99.90
35970;DHT22;22448;51.298;6.430;2023-11-19T10:15:25;12.80;99.90
35970;DHT22;22448;51.298;6.430;2023-11-19T10:17:57;12.80;99.90
35970;DHT22;22448;51.298;6.430;2023-11-19T10:20:25;12.80;99.90
35970;DHT22;22448;51.298;6.430;2023-11-19T10:22:53;12.80;99.90
35970;DHT22;22448;51.298;6.430;2023-11-19T10:25:23;12.90;99.90
35970;DHT22;22448;51.298;6.430;2023-11-19T10:27:51;12.90;99.90
35970;DHT22;22448;51.298;6.430;2023-11-19T10:30:30;12.90;99.90
35970;DHT22;22448;51.298;6.430;2023-11-19T10:33:13;13.00;99.90
35970;DHT22;22448;51.298;6.430;2023-11-19T10:35:55;13.00;99.90
35970;DHT22;22448;51.298;6.430;2023-11-19T10:38:28;13.00;99.90
35970;DHT22;22448;51.298;6.430;2023-11-19T10:40:55;12.90;99.90
35970;DHT22;22448;51.298;6.430;2023-11-19T10:43:23;12.90;99.90
35970;DHT22;22448;51.298;6.430;2023-11-19T10:45:51;13.00;99.90
35970;DHT22;22448;51.298;6.430;2023-11-19T10:48:18;13.00;99.90
35970;DHT22;22448;51.298;6.430;2023-11-19T10:50:49;13.00;99.90
35970;DHT22;22448;51.298;6.430;2023-11-19T10:53:18;12.90;99.90
35970;DHT22;22448;51.298;6.430;2023-11-19T10:55:47;13.10;99.90
35970;DHT22;22448;51.298;6.430;2023-11-19T10:58:16;13.20;99.90
35970;DHT22;22448;51.298;6.430;2023-11-19T11:01:08;13.30;99.90
35970;DHT22;22448;51.298;6.430;2023-11-19T11:04:32;13.30;99.90
35970;DHT22;22448;51.298;6.430;2023-11-19T11:11:40;13.30;99.90
35970;DHT22;22448;51.298;6.430;2023-11-19T11:14:44;13.20;99.90
35970;DHT22;22448;51.298;6.430;2023-11-19T11:17:24;13.00;99.90
35970;DHT22;22448;51.298;6.430;2023-11-19T11:19:55;12.90;99.90
35970;DHT22;22448;51.298;6.430;2023-11-19T11:22:24;12.90;99.90
35970;DHT22;22448;51.298;6.430;2023-11-19T11:25:12;12.80;99.90
35970;DHT22;22448;51.298;6.430;2023-11-19T11:27:53;12.80;99.90
35970;DHT22;22448;51.298;6.430;2023-11-19T11:31:00;12.90;99.90
35970;DHT22;22448;51.298;6.430;2023-11-19T11:36:25;13.00;99.90
35970;DHT22;22448;51.298;6.430;2023-11-19T11:38:53;13.00;99.90
35970;DHT22;22448;51.298;6.430;2023-11-19T11:41:27;13.00;99.90
35970;DHT22;22448;51.298;6.430;2023-11-19T11:43:56;13.10;99.90
35970;DHT22;22448;51.298;6.430;2023-11-19T11:54:32;13.00;99.90
35970;DHT22;22448;51.298;6.430;2023-11-19T11:57:11;13.00;99.90
35970;DHT22;22448;51.298;6.430;2023-11-19T11:59:47;13.00;99.90
35970;DHT22;22448;51.298;6.430;2023-11-19T12:02:19;13.20;99.90
35970;DHT22;22448;51.298;6.430;2023-11-19T12:04:52;13.30;99.90
35970;DHT22;22448;51.298;6.430;2023-11-19T12:07:21;13.60;99.90
35970;DHT22;22448;51.298;6.430;2023-11-19T12:10:07;13.70;99.90
35970;DHT22;22448;51.298;6.430;2023-11-19T12:12:43;13.70;99.90
35970;DHT22;22448;51.298;6.430;2023-11-19T12:15:10;13.60;99.90
35970;DHT22;22448;51.298;6.430;2023-11-19T12:17:42;13.40;99.90
35970;DHT22;22448;51.298;6.430;2023-11-19T12:20:12;13.40;99.90
35970;DHT22;22448;51.298;6.430;2023-11-19T12:22:40;13.30;99.90
35970;DHT22;22448;51.298;6.430;2023-11-19T12:25:10;13.20;99.90
35970;DHT22;22448;51.298;6.430;2023-11-19T12:27:42;13.10;99.90
35970;DHT22;22448;51.298;6.430;2023-11-19T12:30:10;13.00;99.90
35970;DHT22;22448;51.298;6.430;2023-11-19T12:32:45;12.80;99.90
35970;DHT22;22448;51.298;6.430;2023-11-19T12:35:13;12.60;99.90
35970;DHT22;22448;51.298;6.430;2023-11-19T12:37:47;12.50;99.90
35970;DHT22;22448;51.298;6.430;2023-11-19T12:40:16;12.50;99.90
35970;DHT22;22448;51.298;6.430;2023-11-19T12:42:47;12.60;99.90
35970;DHT22;22448;51.298;6.430;2023-11-19T12:45:14;12.70;99.90
35970;DHT22;22448;51.298;6.430;2023-11-19T12:47:46;12.90;99.90
35970;DHT22;22448;51.298;6.430;2023-11-19T12:50:17;12.90;99.90
35970;DHT22;22448;51.298;6.430;2023-11-19T12:52:56;13.00;99.90
35970;DHT22;22448;51.298;6.430;2023-11-19T12:55:27;12.90;99.90
35970;DHT22;22448;51.298;6.430;2023-11-19T12:57:56;13.00;99.90
35970;DHT22;22448;51.298;6.430;2023-11-19T13:00:26;13.10;99.90
35970;DHT22;22448;51.298;6.430;2023-11-19T13:02:55;13.10;99.90
35970;DHT22;22448;51.298;6.430;2023-11-19T13:05:24;13.20;99.90
35970;DHT22;22448;51.298;6.430;2023-11-19T13:08:03;13.20;99.90
35970;DHT22;22448;51.298;6.430;2023-11-19T13:10:33;13.20;99.90
35970;DHT22;22448;51.298;6.430;2023-11-19T13:13:06;13.20;99.90
35970;DHT22;22448;51.298;6.430;2023-11-19T13:15:33;13.20;99.90
35970;DHT22;22448;51.298;6.430;2023-11-19T13:18:02;13.10;99.90
35970;DHT22;22448;51.298;6.430;2023-11-19T13:20:29;13.20;99.90
35970;DHT22;22448;51.298;6.430;2023-11-19T13:22:58;13.30;99.90
35970;DHT22;22448;51.298;6.430;2023-11-19T13:25:29;13.20;99.90
35970;DHT22;22448;51.298;6.430;2023-11-19T13:27:57;13.20;99.90
35970;DHT22;22448;51.298;6.430;2023-11-19T13:30:26;13.20;99.90
35970;DHT22;22448;51.298;6.430;2023-11-19T13:32:54;13.20;99.90
35970;DHT22;22448;51.298;6.430;2023-11-19T13:35:24;13.20;99.90
35970;DHT22;22448;51.298;6.430;2023-11-19T13:37:51;13.20;99.90
35970;DHT22;22448;51.298;6.430;2023-11-19T13:40:19;13.10;99.90
35970;DHT22;22448;51.298;6.430;2023-11-19T13:42:47;13.00;99.90
35970;DHT22;22448;51.298;6.430;2023-11-19T13:45:14;12.90;99.90
35970;DHT22;22448;51.298;6.430;2023-11-19T13:47:43;12.80;99.90
35970;DHT22;22448;51.298;6.430;2023-11-19T13:50:15;12.80;99.90
35970;DHT22;22448;51.298;6.430;2023-11-19T13:52:44;12.70;99.90
35970;DHT22;22448;51.298;6.430;2023-11-19T13:55:13;12.50;99.90
35970;DHT22;22448;51.298;6.430;2023-11-19T13:57:41;12.40;99.90
35970;DHT22;22448;51.298;6.430;2023-11-19T14:00:13;12.40;99.90
35970;DHT22;22448;51.298;6.430;2023-11-19T14:02:41;12.40;99.90
35970;DHT22;22448;51.298;6.430;2023-11-19T14:05:09;12.40;99.90
35970;DHT22;22448;51.298;6.430;2023-11-19T14:07:38;12.40;99.90
35970;DHT22;22448;51.298;6.430;2023-11-19T14:10:06;12.40;99.90
35970;DHT22;22448;51.298;6.430;2023-11-19T14:12:34;12.30;99.90
35970;DHT22;22448;51.298;6.430;2023-11-19T14:15:03;12.20;99.90
35970;DHT22;22448;51.298;6.430;2023-11-19T14:17:31;12.20;99.90
35970;DHT22;22448;51.298;6.430;2023-11-19T14:19:58;12.00;99.90
35970;DHT22;22448;51.298;6.430;2023-11-19T14:22:26;12.00;99.90
35970;DHT22;22448;51.298;6.430;2023-11-19T14:24:54;11.90;99.90
35970;DHT22;22448;51.298;6.430;2023-11-19T14:27:22;11.80;99.90
35970;DHT22;22448;51.298;6.430;2023-11-19T14:29:49;11.70;99.90
35970;DHT22;22448;51.298;6.430;2023-11-19T14:32:18;11.60;99.90
35970;DHT22;22448;51.298;6.430;2023-11-19T14:34:45;11.60;99.90
35970;DHT22;22448;51.298;6.430;2023-11-19T14:37:12;11.40;99.90
35970;DHT22;22448;51.298;6.430;2023-11-19T14:39:39;11.20;99.90
35970;DHT22;22448;51.298;6.430;2023-11-19T14:42:07;11.20;99.90
35970;DHT22;22448;51.298;6.430;2023-11-19T14:44:35;11.10;99.90
35970;DHT22;22448;51.298;6.430;2023-11-19T14:47:03;11.10;99.90
35970;DHT22;22448;51.298;6.430;2023-11-19T14:49:31;11.00;99.90
35970;DHT22;22448;51.298;6.430;2023-11-19T14:51:58;11.00;99.90
35970;DHT22;22448;51.298;6.430;2023-11-19T14:54:44;11.00;99.90
35970;DHT22;22448;51.298;6.430;2023-11-19T14:57:11;11.00;99.90
35970;DHT22;22448;51.298;6.430;2023-11-19T14:59:40;11.00;99.90
35970;DHT22;22448;51.298;6.430;2023-11-19T15:02:07;11.10;99.90
35970;DHT22;22448;51.298;6.430;2023-11-19T15:04:35;11.10;99.90
35970;DHT22;22448;51.298;6.430;2023-11-19T15:07:02;11.10;99.90
35970;DHT22;22448;51.298;6.430;2023-11-19T15:09:31;11.10;99.90
35970;DHT22;22448;51.298;6.430;2023-11-19T15:11:59;11.10;99.90
35970;DHT22;22448;51.298;6.430;2023-11-19T15:14:27;11.10;99.90
35970;DHT22;22448;51.298;6.430;2023-11-19T15:16:55;11.10;99.90
35970;DHT22;22448;51.298;6.430;2023-11-19T15:19:22;11.10;99.90
35970;DHT22;22448;51.298;6.430;2023-11-19T15:21:50;11.00;99.90
35970;DHT22;22448;51.298;6.430;2023-11-19T15:24:17;11.00;99.90
35970;DHT22;22448;51.298;6.430;2023-11-19T15:26:45;10.90;99.90
35970;DHT22;22448;51.298;6.430;2023-11-19T15:29:12;11.00;99.90
35970;DHT22;22448;51.298;6.430;2023-11-19T15:31:40;10.90;99.90
35970;DHT22;22448;51.298;6.430;2023-11-19T15:34:08;11.00;99.90
35970;DHT22;22448;51.298;6.430;2023-11-19T15:36:36;11.00;99.90
35970;DHT22;22448;51.298;6.430;2023-11-19T15:39:03;10.90;99.90
35970;DHT22;22448;51.298;6.430;2023-11-19T15:41:31;10.90;99.90
35970;DHT22;22448;51.298;6.430;2023-11-19T15:44:00;10.90;99.90
35970;DHT22;22448;51.298;6.430;2023-11-19T15:46:27;10.90;99.90
35970;DHT22;22448;51.298;6.430;2023-11-19T15:48:54;10.90;99.90
35970;DHT22;22448;51.298;6.430;2023-11-19T15:51:21;10.90;99.90
35970;DHT22;22448;51.298;6.430;2023-11-19T15:53:49;10.90;99.90
35970;DHT22;22448;51.298;6.430;2023-11-19T15:56:17;10.90;99.90
35970;DHT22;22448;51.298;6.430;2023-11-19T15:58:44;10.90;99.90